sensor_id;sensor_type;location;lat;lon;timestamp;P1;durP1;ratioP1;P2;durP2;ratioP2
70150;SDS011;57517;43.562;19.540;2023-10-08T00:01:08;9.50;;;7.35;;
70150;SDS011;57517;43.562;19.540;2023-10-08T00:03:38;11.50;;;8.57;;
70150;SDS011;57517;43.562;19.540;2023-10-08T00:06:05;10.98;;;7.78;;
70150;SDS011;57517;43.562;19.540;2023-10-08T00:08:32;10.70;;;7.25;;
70150;SDS011;57517;43.562;19.540;2023-10-08T00:10:58;10.32;;;7.35;;
70150;SDS011;57517;43.562;19.540;2023-10-08T00:13:31;10.00;;;7.60;;
70150;SDS011;57517;43.562;19.540;2023-10-08T00:16:01;15.25;;;8.65;;
70150;SDS011;57517;43.562;19.540;2023-10-08T00:18:27;10.20;;;7.57;;
70150;SDS011;57517;43.562;19.540;2023-10-08T00:20:53;10.50;;;7.03;;
70150;SDS011;57517;43.562;19.540;2023-10-08T00:23:38;11.73;;;7.10;;
70150;SDS011;57517;43.562;19.540;2023-10-08T00:26:07;10.55;;;7.25;;
70150;SDS011;57517;43.562;19.540;2023-10-08T00:28:34;10.38;;;7.35;;
70150;SDS011;57517;43.562;19.540;2023-10-08T00:31:03;13.68;;;7.97;;
70150;SDS011;57517;43.562;19.540;2023-10-08T00:33:36;14.00;;;8.70;;
70150;SDS011;57517;43.562;19.540;2023-10-08T00:36:02;14.27;;;7.63;;
70150;SDS011;57517;43.562;19.540;2023-10-08T00:38:42;12.63;;;8.02;;
70150;SDS011;57517;43.562;19.540;2023-10-08T00:41:15;12.02;;;7.18;;
70150;SDS011;57517;43.562;19.540;2023-10-08T00:43:41;10.02;;;7.15;;
70150;SDS011;57517;43.562;19.540;2023-10-08T00:46:10;13.20;;;8.55;;
70150;SDS011;57517;43.562;19.540;2023-10-08T00:48:56;11.77;;;7.68;;
70150;SDS011;57517;43.562;19.540;2023-10-08T00:51:36;11.30;;;8.15;;
70150;SDS011;57517;43.562;19.540;2023-10-08T00:54:06;12.95;;;9.25;;
70150;SDS011;57517;43.562;19.540;2023-10-08T00:56:34;13.30;;;9.43;;
70150;SDS011;57517;43.562;19.540;2023-10-08T00:59:22;15.45;;;9.68;;
70150;SDS011;57517;43.562;19.540;2023-10-08T01:01:50;11.48;;;8.32;;
70150;SDS011;57517;43.562;19.540;2023-10-08T01:04:20;13.85;;;9.15;;
70150;SDS011;57517;43.562;19.540;2023-10-08T01:06:49;12.77;;;7.80;;
70150;SDS011;57517;43.562;19.540;2023-10-08T01:09:20;10.15;;;7.70;;
70150;SDS011;57517;43.562;19.540;2023-10-08T01:14:51;14.75;;;9.70;;
70150;SDS011;57517;43.562;19.540;2023-10-08T01:17:21;9.85;;;8.02;;
70150;SDS011;57517;43.562;19.540;2023-10-08T01:19:52;12.15;;;9.55;;
70150;SDS011;57517;43.562;19.540;2023-10-08T01:22:37;13.48;;;8.40;;
70150;SDS011;57517;43.562;19.540;2023-10-08T01:25:04;12.32;;;8.02;;
70150;SDS011;57517;43.562;19.540;2023-10-08T01:27:31;11.70;;;7.75;;
70150;SDS011;57517;43.562;19.540;2023-10-08T01:30:00;11.68;;;8.10;;
70150;SDS011;57517;43.562;19.540;2023-10-08T01:32:43;10.95;;;8.15;;
70150;SDS011;57517;43.562;19.540;2023-10-08T01:35:09;8.70;;;6.93;;
70150;SDS011;57517;43.562;19.540;2023-10-08T01:37:48;13.23;;;7.22;;
70150;SDS011;57517;43.562;19.540;2023-10-08T01:40:18;10.07;;;7.32;;
70150;SDS011;57517;43.562;19.540;2023-10-08T01:42:44;10.43;;;7.85;;
70150;SDS011;57517;43.562;19.540;2023-10-08T01:45:11;9.02;;;6.65;;
70150;SDS011;57517;43.562;19.540;2023-10-08T01:47:42;9.55;;;7.00;;
70150;SDS011;57517;43.562;19.540;2023-10-08T01:50:08;10.27;;;7.25;;
70150;SDS011;57517;43.562;19.540;2023-10-08T01:52:46;10.40;;;8.23;;
70150;SDS011;57517;43.562;19.540;2023-10-08T01:55:13;12.25;;;7.45;;
70150;SDS011;57517;43.562;19.540;2023-10-08T01:57:43;12.88;;;7.50;;
70150;SDS011;57517;43.562;19.540;2023-10-08T02:00:10;10.13;;;7.10;;
70150;SDS011;57517;43.562;19.540;2023-10-08T02:02:36;11.02;;;7.32;;
70150;SDS011;57517;43.562;19.540;2023-10-08T02:05:02;11.15;;;7.60;;
70150;SDS011;57517;43.562;19.540;2023-10-08T02:07:29;9.10;;;7.57;;
70150;SDS011;57517;43.562;19.540;2023-10-08T02:09:55;12.95;;;7.35;;
70150;SDS011;57517;43.562;19.540;2023-10-08T02:12:22;12.27;;;7.45;;
70150;SDS011;57517;43.562;19.540;2023-10-08T02:14:48;12.00;;;8.23;;
70150;SDS011;57517;43.562;19.540;2023-10-08T02:17:14;11.90;;;8.23;;
70150;SDS011;57517;43.562;19.540;2023-10-08T02:19:40;13.23;;;8.15;;
70150;SDS011;57517;43.562;19.540;2023-10-08T02:22:06;12.27;;;8.27;;
70150;SDS011;57517;43.562;19.540;2023-10-08T02:24:35;12.90;;;8.90;;
70150;SDS011;57517;43.562;19.540;2023-10-08T02:27:01;11.90;;;8.77;;
70150;SDS011;57517;43.562;19.540;2023-10-08T02:29:28;12.02;;;9.27;;
70150;SDS011;57517;43.562;19.540;2023-10-08T02:31:55;12.27;;;8.50;;
70150;SDS011;57517;43.562;19.540;2023-10-08T02:34:21;11.20;;;8.35;;
70150;SDS011;57517;43.562;19.540;2023-10-08T02:36:47;13.80;;;9.70;;
70150;SDS011;57517;43.562;19.540;2023-10-08T02:39:13;11.88;;;9.30;;
70150;SDS011;57517;43.562;19.540;2023-10-08T02:41:52;13.25;;;8.77;;
70150;SDS011;57517;43.562;19.540;2023-10-08T02:44:21;13.20;;;8.93;;
70150;SDS011;57517;43.562;19.540;2023-10-08T02:46:48;12.48;;;10.20;;
70150;SDS011;57517;43.562;19.540;2023-10-08T02:49:18;16.17;;;9.88;;
70150;SDS011;57517;43.562;19.540;2023-10-08T02:51:54;13.40;;;9.38;;
70150;SDS011;57517;43.562;19.540;2023-10-08T02:54:20;15.32;;;10.15;;
70150;SDS011;57517;43.562;19.540;2023-10-08T02:56:57;14.55;;;10.80;;
70150;SDS011;57517;43.562;19.540;2023-10-08T02:59:31;15.60;;;10.57;;
70150;SDS011;57517;43.562;19.540;2023-10-08T03:02:08;17.60;;;11.57;;
70150;SDS011;57517;43.562;19.540;2023-10-08T03:04:43;17.27;;;11.07;;
70150;SDS011;57517;43.562;19.540;2023-10-08T03:07:11;15.32;;;11.30;;
70150;SDS011;57517;43.562;19.540;2023-10-08T03:09:50;15.48;;;11.48;;
70150;SDS011;57517;43.562;19.540;2023-10-08T03:12:16;14.48;;;11.27;;
70150;SDS011;57517;43.562;19.540;2023-10-08T03:14:43;16.98;;;11.07;;
70150;SDS011;57517;43.562;19.540;2023-10-08T03:17:27;14.65;;;11.15;;
70150;SDS011;57517;43.562;19.540;2023-10-08T03:19:54;15.63;;;10.85;;
70150;SDS011;57517;43.562;19.540;2023-10-08T03:22:43;15.38;;;10.73;;
70150;SDS011;57517;43.562;19.540;2023-10-08T03:25:10;14.15;;;10.48;;
70150;SDS011;57517;43.562;19.540;2023-10-08T03:27:45;14.10;;;9.88;;
70150;SDS011;57517;43.562;19.540;2023-10-08T03:30:13;15.55;;;10.10;;
70150;SDS011;57517;43.562;19.540;2023-10-08T03:32:41;14.77;;;10.02;;
70150;SDS011;57517;43.562;19.540;2023-10-08T03:35:10;14.45;;;10.00;;
70150;SDS011;57517;43.562;19.540;2023-10-08T03:37:37;13.80;;;10.20;;
70150;SDS011;57517;43.562;19.540;2023-10-08T03:40:06;13.77;;;9.68;;
70150;SDS011;57517;43.562;19.540;2023-10-08T03:42:48;15.60;;;10.23;;
70150;SDS011;57517;43.562;19.540;2023-10-08T03:45:14;14.40;;;10.75;;
70150;SDS011;57517;43.562;19.540;2023-10-08T03:47:48;15.18;;;10.07;;
70150;SDS011;57517;43.562;19.540;2023-10-08T03:50:30;12.90;;;9.55;;
70150;SDS011;57517;43.562;19.540;2023-10-08T03:53:06;13.82;;;10.38;;
70150;SDS011;57517;43.562;19.540;2023-10-08T03:55:38;14.65;;;10.45;;
70150;SDS011;57517;43.562;19.540;2023-10-08T03:58:08;12.93;;;9.95;;
70150;SDS011;57517;43.562;19.540;2023-10-08T04:01:00;13.50;;;9.90;;
70150;SDS011;57517;43.562;19.540;2023-10-08T04:03:44;16.90;;;10.82;;
70150;SDS011;57517;43.562;19.540;2023-10-08T04:06:16;14.65;;;10.38;;
70150;SDS011;57517;43.562;19.540;2023-10-08T04:08:47;13.98;;;10.05;;
70150;SDS011;57517;43.562;19.540;2023-10-08T04:11:31;13.20;;;9.82;;
70150;SDS011;57517;43.562;19.540;2023-10-08T04:14:00;15.77;;;11.10;;
70150;SDS011;57517;43.562;19.540;2023-10-08T04:16:27;15.48;;;10.35;;
70150;SDS011;57517;43.562;19.540;2023-10-08T04:18:54;13.65;;;10.02;;
70150;SDS011;57517;43.562;19.540;2023-10-08T04:21:24;15.40;;;10.85;;
70150;SDS011;57517;43.562;19.540;2023-10-08T04:23:53;13.77;;;10.00;;
70150;SDS011;57517;43.562;19.540;2023-10-08T04:26:19;14.88;;;10.35;;
70150;SDS011;57517;43.562;19.540;2023-10-08T04:28:51;13.23;;;9.82;;
70150;SDS011;57517;43.562;19.540;2023-10-08T04:31:25;15.35;;;11.15;;
70150;SDS011;57517;43.562;19.540;2023-10-08T04:34:02;17.10;;;11.57;;
70150;SDS011;57517;43.562;19.540;2023-10-08T04:36:34;17.38;;;12.68;;
70150;SDS011;57517;43.562;19.540;2023-10-08T04:39:03;15.40;;;11.40;;
70150;SDS011;57517;43.562;19.540;2023-10-08T04:41:52;16.85;;;11.63;;
70150;SDS011;57517;43.562;19.540;2023-10-08T04:44:20;17.50;;;12.23;;
70150;SDS011;57517;43.562;19.540;2023-10-08T04:46:46;15.38;;;10.77;;
70150;SDS011;57517;43.562;19.540;2023-10-08T04:49:13;13.88;;;10.18;;
70150;SDS011;57517;43.562;19.540;2023-10-08T04:52:06;15.43;;;10.98;;
70150;SDS011;57517;43.562;19.540;2023-10-08T04:54:41;14.07;;;10.30;;
70150;SDS011;57517;43.562;19.540;2023-10-08T04:57:16;13.95;;;10.38;;
70150;SDS011;57517;43.562;19.540;2023-10-08T04:59:43;15.60;;;10.35;;
70150;SDS011;57517;43.562;19.540;2023-10-08T05:02:11;16.77;;;11.45;;
70150;SDS011;57517;43.562;19.540;2023-10-08T05:04:38;14.68;;;10.82;;
70150;SDS011;57517;43.562;19.540;2023-10-08T05:07:30;13.88;;;10.13;;
70150;SDS011;57517;43.562;19.540;2023-10-08T05:10:16;13.88;;;11.60;;
70150;SDS011;57517;43.562;19.540;2023-10-08T05:12:51;16.08;;;12.55;;
70150;SDS011;57517;43.562;19.540;2023-10-08T05:15:41;17.17;;;11.68;;
70150;SDS011;57517;43.562;19.540;2023-10-08T05:18:15;15.48;;;11.60;;
70150;SDS011;57517;43.562;19.540;2023-10-08T05:20:44;15.35;;;11.43;;
70150;SDS011;57517;43.562;19.540;2023-10-08T05:23:11;16.67;;;13.15;;
70150;SDS011;57517;43.562;19.540;2023-10-08T05:25:53;16.55;;;11.52;;
70150;SDS011;57517;43.562;19.540;2023-10-08T05:28:39;18.30;;;12.38;;
70150;SDS011;57517;43.562;19.540;2023-10-08T05:31:24;15.03;;;11.27;;
70150;SDS011;57517;43.562;19.540;2023-10-08T05:34:12;15.57;;;10.95;;
70150;SDS011;57517;43.562;19.540;2023-10-08T05:36:57;15.68;;;11.70;;
70150;SDS011;57517;43.562;19.540;2023-10-08T05:39:29;25.10;;;12.93;;
70150;SDS011;57517;43.562;19.540;2023-10-08T05:42:05;17.67;;;12.15;;
70150;SDS011;57517;43.562;19.540;2023-10-08T05:47:36;16.10;;;11.07;;
70150;SDS011;57517;43.562;19.540;2023-10-08T05:50:02;15.38;;;10.40;;
70150;SDS011;57517;43.562;19.540;2023-10-08T05:52:41;18.30;;;11.77;;
70150;SDS011;57517;43.562;19.540;2023-10-08T05:55:25;17.23;;;11.68;;
70150;SDS011;57517;43.562;19.540;2023-10-08T05:57:53;16.00;;;11.45;;
70150;SDS011;57517;43.562;19.540;2023-10-08T06:00:38;17.10;;;11.70;;
70150;SDS011;57517;43.562;19.540;2023-10-08T06:03:14;13.30;;;11.20;;
70150;SDS011;57517;43.562;19.540;2023-10-08T06:05:59;14.73;;;11.77;;
70150;SDS011;57517;43.562;19.540;2023-10-08T06:08:41;15.10;;;11.30;;
70150;SDS011;57517;43.562;19.540;2023-10-08T06:14:06;12.98;;;11.02;;
70150;SDS011;57517;43.562;19.540;2023-10-08T06:16:44;13.50;;;10.85;;
70150;SDS011;57517;43.562;19.540;2023-10-08T06:19:12;17.83;;;12.25;;
70150;SDS011;57517;43.562;19.540;2023-10-08T06:21:39;15.30;;;12.45;;
70150;SDS011;57517;43.562;19.540;2023-10-08T06:24:07;17.25;;;12.55;;
70150;SDS011;57517;43.562;19.540;2023-10-08T06:26:40;15.77;;;12.40;;
70150;SDS011;57517;43.562;19.540;2023-10-08T06:29:13;17.13;;;11.48;;
70150;SDS011;57517;43.562;19.540;2023-10-08T06:31:55;15.80;;;12.40;;
70150;SDS011;57517;43.562;19.540;2023-10-08T06:34:22;14.10;;;10.70;;
70150;SDS011;57517;43.562;19.540;2023-10-08T06:36:50;14.77;;;11.65;;
70150;SDS011;57517;43.562;19.540;2023-10-08T06:39:22;15.63;;;10.13;;
70150;SDS011;57517;43.562;19.540;2023-10-08T06:41:58;19.40;;;13.57;;
70150;SDS011;57517;43.562;19.540;2023-10-08T06:44:25;22.80;;;12.30;;
70150;SDS011;57517;43.562;19.540;2023-10-08T06:46:52;15.93;;;11.88;;
70150;SDS011;57517;43.562;19.540;2023-10-08T06:49:20;17.35;;;12.48;;
70150;SDS011;57517;43.562;19.540;2023-10-08T06:51:49;14.73;;;11.43;;
70150;SDS011;57517;43.562;19.540;2023-10-08T06:54:16;23.63;;;15.60;;
70150;SDS011;57517;43.562;19.540;2023-10-08T06:56:43;17.42;;;12.38;;
70150;SDS011;57517;43.562;19.540;2023-10-08T06:59:16;16.30;;;12.23;;
70150;SDS011;57517;43.562;19.540;2023-10-08T07:01:43;14.85;;;11.65;;
70150;SDS011;57517;43.562;19.540;2023-10-08T07:04:12;14.60;;;11.05;;
70150;SDS011;57517;43.562;19.540;2023-10-08T07:06:39;17.23;;;12.52;;
70150;SDS011;57517;43.562;19.540;2023-10-08T07:09:09;16.30;;;11.32;;
70150;SDS011;57517;43.562;19.540;2023-10-08T07:11:50;14.45;;;11.00;;
70150;SDS011;57517;43.562;19.540;2023-10-08T07:14:20;27.02;;;17.00;;
70150;SDS011;57517;43.562;19.540;2023-10-08T07:16:52;16.05;;;12.02;;
70150;SDS011;57517;43.562;19.540;2023-10-08T07:19:25;12.70;;;10.73;;
70150;SDS011;57517;43.562;19.540;2023-10-08T07:22:04;43.17;;;25.13;;
70150;SDS011;57517;43.562;19.540;2023-10-08T07:24:42;18.65;;;12.23;;
70150;SDS011;57517;43.562;19.540;2023-10-08T07:27:11;36.17;;;24.35;;
70150;SDS011;57517;43.562;19.540;2023-10-08T07:29:37;16.33;;;11.45;;
70150;SDS011;57517;43.562;19.540;2023-10-08T07:32:02;15.25;;;11.63;;
70150;SDS011;57517;43.562;19.540;2023-10-08T07:34:38;21.60;;;15.15;;
70150;SDS011;57517;43.562;19.540;2023-10-08T07:37:04;24.85;;;16.90;;
70150;SDS011;57517;43.562;19.540;2023-10-08T07:39:36;36.15;;;21.98;;
70150;SDS011;57517;43.562;19.540;2023-10-08T07:42:10;34.85;;;25.30;;
70150;SDS011;57517;43.562;19.540;2023-10-08T07:44:36;38.42;;;24.02;;
70150;SDS011;57517;43.562;19.540;2023-10-08T07:47:04;50.35;;;30.55;;
70150;SDS011;57517;43.562;19.540;2023-10-08T07:49:35;28.27;;;18.63;;
70150;SDS011;57517;43.562;19.540;2023-10-08T07:52:01;22.73;;;16.15;;
70150;SDS011;57517;43.562;19.540;2023-10-08T07:54:30;36.50;;;22.70;;
70150;SDS011;57517;43.562;19.540;2023-10-08T07:57:00;30.17;;;19.92;;
70150;SDS011;57517;43.562;19.540;2023-10-08T07:59:37;87.30;;;46.53;;
70150;SDS011;57517;43.562;19.540;2023-10-08T08:02:06;39.25;;;23.17;;
70150;SDS011;57517;43.562;19.540;2023-10-08T08:04:42;30.35;;;20.35;;
70150;SDS011;57517;43.562;19.540;2023-10-08T08:07:10;18.05;;;14.73;;
70150;SDS011;57517;43.562;19.540;2023-10-08T08:09:44;24.83;;;16.45;;
70150;SDS011;57517;43.562;19.540;2023-10-08T08:12:21;26.65;;;16.58;;
70150;SDS011;57517;43.562;19.540;2023-10-08T08:14:47;24.92;;;19.48;;
70150;SDS011;57517;43.562;19.540;2023-10-08T08:17:14;18.75;;;13.85;;
70150;SDS011;57517;43.562;19.540;2023-10-08T08:19:41;17.25;;;13.50;;
70150;SDS011;57517;43.562;19.540;2023-10-08T08:22:07;18.92;;;15.05;;
70150;SDS011;57517;43.562;19.540;2023-10-08T08:24:35;22.30;;;15.98;;
70150;SDS011;57517;43.562;19.540;2023-10-08T08:27:02;30.10;;;22.30;;
70150;SDS011;57517;43.562;19.540;2023-10-08T08:29:51;21.38;;;14.77;;
70150;SDS011;57517;43.562;19.540;2023-10-08T08:32:23;19.35;;;15.32;;
70150;SDS011;57517;43.562;19.540;2023-10-08T08:34:49;16.30;;;12.80;;
70150;SDS011;57517;43.562;19.540;2023-10-08T08:37:16;24.45;;;21.85;;
70150;SDS011;57517;43.562;19.540;2023-10-08T08:39:42;23.40;;;20.35;;
70150;SDS011;57517;43.562;19.540;2023-10-08T08:42:08;17.05;;;14.88;;
70150;SDS011;57517;43.562;19.540;2023-10-08T08:44:36;16.50;;;14.10;;
70150;SDS011;57517;43.562;19.540;2023-10-08T08:47:13;18.42;;;16.27;;
70150;SDS011;57517;43.562;19.540;2023-10-08T08:49:43;14.45;;;11.98;;
70150;SDS011;57517;43.562;19.540;2023-10-08T08:52:12;14.45;;;12.98;;
70150;SDS011;57517;43.562;19.540;2023-10-08T08:54:39;24.30;;;18.60;;
70150;SDS011;57517;43.562;19.540;2023-10-08T08:57:09;18.35;;;14.23;;
70150;SDS011;57517;43.562;19.540;2023-10-08T08:59:40;15.70;;;11.63;;
70150;SDS011;57517;43.562;19.540;2023-10-08T09:02:13;12.27;;;9.40;;
70150;SDS011;57517;43.562;19.540;2023-10-08T09:04:40;12.55;;;9.32;;
70150;SDS011;57517;43.562;19.540;2023-10-08T09:07:07;18.08;;;11.55;;
70150;SDS011;57517;43.562;19.540;2023-10-08T09:09:33;14.25;;;10.25;;
70150;SDS011;57517;43.562;19.540;2023-10-08T09:12:03;17.55;;;13.95;;
70150;SDS011;57517;43.562;19.540;2023-10-08T09:14:30;12.00;;;10.20;;
70150;SDS011;57517;43.562;19.540;2023-10-08T09:16:59;12.07;;;8.95;;
70150;SDS011;57517;43.562;19.540;2023-10-08T09:19:29;11.55;;;8.60;;
70150;SDS011;57517;43.562;19.540;2023-10-08T09:22:06;10.95;;;8.80;;
70150;SDS011;57517;43.562;19.540;2023-10-08T09:24:37;11.00;;;8.30;;
70150;SDS011;57517;43.562;19.540;2023-10-08T09:27:04;11.63;;;9.00;;
70150;SDS011;57517;43.562;19.540;2023-10-08T09:29:39;10.70;;;8.73;;
70150;SDS011;57517;43.562;19.540;2023-10-08T09:32:08;12.30;;;10.95;;
70150;SDS011;57517;43.562;19.540;2023-10-08T09:34:36;13.35;;;10.57;;
70150;SDS011;57517;43.562;19.540;2023-10-08T09:37:02;12.65;;;11.35;;
70150;SDS011;57517;43.562;19.540;2023-10-08T09:39:30;13.20;;;11.90;;
70150;SDS011;57517;43.562;19.540;2023-10-08T09:42:00;16.15;;;12.55;;
70150;SDS011;57517;43.562;19.540;2023-10-08T09:44:36;36.60;;;14.27;;
70150;SDS011;57517;43.562;19.540;2023-10-08T09:47:04;16.63;;;12.63;;
70150;SDS011;57517;43.562;19.540;2023-10-08T09:49:31;19.10;;;12.38;;
70150;SDS011;57517;43.562;19.540;2023-10-08T09:52:03;13.57;;;10.60;;
70150;SDS011;57517;43.562;19.540;2023-10-08T09:54:35;30.75;;;19.83;;
70150;SDS011;57517;43.562;19.540;2023-10-08T09:57:23;17.88;;;10.88;;
70150;SDS011;57517;43.562;19.540;2023-10-08T09:59:52;20.60;;;12.00;;
70150;SDS011;57517;43.562;19.540;2023-10-08T10:02:19;20.85;;;12.35;;
70150;SDS011;57517;43.562;19.540;2023-10-08T10:04:51;14.23;;;11.13;;
70150;SDS011;57517;43.562;19.540;2023-10-08T10:07:20;12.55;;;10.35;;
70150;SDS011;57517;43.562;19.540;2023-10-08T10:09:49;13.07;;;10.20;;
70150;SDS011;57517;43.562;19.540;2023-10-08T10:12:20;10.38;;;8.88;;
70150;SDS011;57517;43.562;19.540;2023-10-08T10:17:21;12.23;;;8.43;;
70150;SDS011;57517;43.562;19.540;2023-10-08T10:19:54;23.60;;;9.27;;
70150;SDS011;57517;43.562;19.540;2023-10-08T10:22:33;19.33;;;8.60;;
70150;SDS011;57517;43.562;19.540;2023-10-08T10:25:03;10.65;;;7.47;;
70150;SDS011;57517;43.562;19.540;2023-10-08T10:27:41;13.18;;;8.43;;
70150;SDS011;57517;43.562;19.540;2023-10-08T10:30:18;11.98;;;8.00;;
70150;SDS011;57517;43.562;19.540;2023-10-08T10:32:46;11.02;;;8.32;;
70150;SDS011;57517;43.562;19.540;2023-10-08T10:35:14;43.78;;;25.85;;
70150;SDS011;57517;43.562;19.540;2023-10-08T10:37:43;33.92;;;22.38;;
70150;SDS011;57517;43.562;19.540;2023-10-08T10:40:20;52.63;;;28.92;;
70150;SDS011;57517;43.562;19.540;2023-10-08T10:42:58;24.42;;;15.00;;
70150;SDS011;57517;43.562;19.540;2023-10-08T10:45:29;20.70;;;13.68;;
70150;SDS011;57517;43.562;19.540;2023-10-08T10:48:04;20.00;;;13.63;;
70150;SDS011;57517;43.562;19.540;2023-10-08T10:50:41;14.32;;;11.05;;
70150;SDS011;57517;43.562;19.540;2023-10-08T10:53:26;16.65;;;10.70;;
70150;SDS011;57517;43.562;19.540;2023-10-08T10:55:55;13.98;;;10.18;;
70150;SDS011;57517;43.562;19.540;2023-10-08T10:58:34;15.70;;;10.73;;
70150;SDS011;57517;43.562;19.540;2023-10-08T11:01:04;25.25;;;18.40;;
70150;SDS011;57517;43.562;19.540;2023-10-08T11:03:40;41.30;;;29.85;;
70150;SDS011;57517;43.562;19.540;2023-10-08T11:06:07;27.40;;;21.00;;
70150;SDS011;57517;43.562;19.540;2023-10-08T11:08:40;15.23;;;11.15;;
70150;SDS011;57517;43.562;19.540;2023-10-08T11:11:11;14.55;;;10.45;;
70150;SDS011;57517;43.562;19.540;2023-10-08T11:13:37;13.73;;;11.05;;
70150;SDS011;57517;43.562;19.540;2023-10-08T11:16:04;15.88;;;11.30;;
70150;SDS011;57517;43.562;19.540;2023-10-08T11:18:32;15.10;;;11.88;;
70150;SDS011;57517;43.562;19.540;2023-10-08T11:21:08;14.40;;;10.15;;
70150;SDS011;57517;43.562;19.540;2023-10-08T11:23:44;12.52;;;9.85;;
70150;SDS011;57517;43.562;19.540;2023-10-08T11:26:23;17.90;;;13.32;;
70150;SDS011;57517;43.562;19.540;2023-10-08T11:29:00;19.65;;;14.60;;
70150;SDS011;57517;43.562;19.540;2023-10-08T11:31:28;17.45;;;13.75;;
70150;SDS011;57517;43.562;19.540;2023-10-08T11:33:59;15.48;;;11.48;;
70150;SDS011;57517;43.562;19.540;2023-10-08T11:36:27;14.95;;;10.30;;
70150;SDS011;57517;43.562;19.540;2023-10-08T11:38:57;18.88;;;12.13;;
70150;SDS011;57517;43.562;19.540;2023-10-08T11:41:36;17.45;;;12.95;;
70150;SDS011;57517;43.562;19.540;2023-10-08T11:47:00;12.73;;;9.45;;
70150;SDS011;57517;43.562;19.540;2023-10-08T11:49:36;11.88;;;9.85;;
70150;SDS011;57517;43.562;19.540;2023-10-08T11:52:11;11.52;;;9.43;;
70150;SDS011;57517;43.562;19.540;2023-10-08T11:54:40;16.42;;;10.48;;
70150;SDS011;57517;43.562;19.540;2023-10-08T11:57:09;20.33;;;11.00;;
70150;SDS011;57517;43.562;19.540;2023-10-08T11:59:36;11.65;;;8.40;;
70150;SDS011;57517;43.562;19.540;2023-10-08T12:02:08;11.73;;;8.25;;
70150;SDS011;57517;43.562;19.540;2023-10-08T12:04:33;12.55;;;7.85;;
70150;SDS011;57517;43.562;19.540;2023-10-08T12:07:01;11.05;;;8.60;;
70150;SDS011;57517;43.562;19.540;2023-10-08T12:09:32;12.50;;;8.73;;
70150;SDS011;57517;43.562;19.540;2023-10-08T12:12:03;12.77;;;9.00;;
70150;SDS011;57517;43.562;19.540;2023-10-08T12:14:34;11.43;;;8.50;;
70150;SDS011;57517;43.562;19.540;2023-10-08T12:17:03;9.43;;;7.72;;
70150;SDS011;57517;43.562;19.540;2023-10-08T12:19:36;10.18;;;7.90;;
70150;SDS011;57517;43.562;19.540;2023-10-08T12:22:05;10.48;;;7.93;;
70150;SDS011;57517;43.562;19.540;2023-10-08T12:24:33;10.65;;;7.00;;
70150;SDS011;57517;43.562;19.540;2023-10-08T12:27:00;10.20;;;8.05;;
70150;SDS011;57517;43.562;19.540;2023-10-08T12:29:28;8.45;;;7.13;;
70150;SDS011;57517;43.562;19.540;2023-10-08T12:31:56;11.82;;;8.07;;
70150;SDS011;57517;43.562;19.540;2023-10-08T12:34:24;9.27;;;7.63;;
70150;SDS011;57517;43.562;19.540;2023-10-08T12:36:51;10.38;;;7.93;;
70150;SDS011;57517;43.562;19.540;2023-10-08T12:39:16;11.80;;;8.63;;
70150;SDS011;57517;43.562;19.540;2023-10-08T12:41:43;9.75;;;6.85;;
70150;SDS011;57517;43.562;19.540;2023-10-08T12:44:12;11.00;;;8.23;;
70150;SDS011;57517;43.562;19.540;2023-10-08T12:46:40;10.52;;;8.18;;
70150;SDS011;57517;43.562;19.540;2023-10-08T12:49:09;9.55;;;6.80;;
70150;SDS011;57517;43.562;19.540;2023-10-08T12:51:35;10.35;;;8.07;;
70150;SDS011;57517;43.562;19.540;2023-10-08T12:54:06;9.05;;;6.85;;
70150;SDS011;57517;43.562;19.540;2023-10-08T12:56:34;9.88;;;7.05;;
70150;SDS011;57517;43.562;19.540;2023-10-08T12:59:09;11.93;;;7.88;;
70150;SDS011;57517;43.562;19.540;2023-10-08T13:01:45;9.35;;;7.60;;
70150;SDS011;57517;43.562;19.540;2023-10-08T13:04:19;11.38;;;8.07;;
70150;SDS011;57517;43.562;19.540;2023-10-08T13:06:56;10.43;;;8.35;;
70150;SDS011;57517;43.562;19.540;2023-10-08T13:09:26;12.65;;;8.55;;
70150;SDS011;57517;43.562;19.540;2023-10-08T13:11:52;14.23;;;9.05;;
70150;SDS011;57517;43.562;19.540;2023-10-08T13:14:18;23.50;;;10.15;;
70150;SDS011;57517;43.562;19.540;2023-10-08T13:16:44;12.88;;;7.95;;
70150;SDS011;57517;43.562;19.540;2023-10-08T13:19:10;13.55;;;8.63;;
70150;SDS011;57517;43.562;19.540;2023-10-08T13:21:36;11.57;;;8.05;;
70150;SDS011;57517;43.562;19.540;2023-10-08T13:24:02;12.48;;;9.50;;
70150;SDS011;57517;43.562;19.540;2023-10-08T13:26:30;10.82;;;8.50;;
70150;SDS011;57517;43.562;19.540;2023-10-08T13:28:57;10.80;;;8.13;;
70150;SDS011;57517;43.562;19.540;2023-10-08T13:31:26;10.30;;;7.72;;
70150;SDS011;57517;43.562;19.540;2023-10-08T13:33:52;10.52;;;8.07;;
70150;SDS011;57517;43.562;19.540;2023-10-08T13:36:21;11.45;;;9.13;;
70150;SDS011;57517;43.562;19.540;2023-10-08T13:38:49;15.95;;;10.32;;
70150;SDS011;57517;43.562;19.540;2023-10-08T13:41:15;14.93;;;11.13;;
70150;SDS011;57517;43.562;19.540;2023-10-08T13:43:45;12.90;;;9.90;;
70150;SDS011;57517;43.562;19.540;2023-10-08T13:46:17;14.55;;;10.07;;
70150;SDS011;57517;43.562;19.540;2023-10-08T13:48:46;11.07;;;8.05;;
70150;SDS011;57517;43.562;19.540;2023-10-08T13:51:16;10.40;;;8.30;;
70150;SDS011;57517;43.562;19.540;2023-10-08T13:53:52;11.27;;;7.70;;
70150;SDS011;57517;43.562;19.540;2023-10-08T13:56:24;11.40;;;8.50;;
70150;SDS011;57517;43.562;19.540;2023-10-08T13:58:55;13.85;;;9.65;;
70150;SDS011;57517;43.562;19.540;2023-10-08T14:01:38;13.70;;;9.18;;
70150;SDS011;57517;43.562;19.540;2023-10-08T14:04:10;12.18;;;10.02;;
70150;SDS011;57517;43.562;19.540;2023-10-08T14:06:37;12.75;;;9.55;;
70150;SDS011;57517;43.562;19.540;2023-10-08T14:09:06;12.70;;;9.20;;
70150;SDS011;57517;43.562;19.540;2023-10-08T14:11:47;13.98;;;11.25;;
70150;SDS011;57517;43.562;19.540;2023-10-08T14:14:18;20.48;;;12.75;;
70150;SDS011;57517;43.562;19.540;2023-10-08T14:16:45;14.23;;;11.57;;
70150;SDS011;57517;43.562;19.540;2023-10-08T14:19:17;20.38;;;16.08;;
70150;SDS011;57517;43.562;19.540;2023-10-08T14:21:43;21.05;;;14.55;;
70150;SDS011;57517;43.562;19.540;2023-10-08T14:24:15;15.93;;;11.68;;
70150;SDS011;57517;43.562;19.540;2023-10-08T14:26:42;16.05;;;11.18;;
70150;SDS011;57517;43.562;19.540;2023-10-08T14:29:08;13.32;;;9.55;;
70150;SDS011;57517;43.562;19.540;2023-10-08T14:31:40;19.02;;;14.20;;
70150;SDS011;57517;43.562;19.540;2023-10-08T14:34:21;29.65;;;21.17;;
70150;SDS011;57517;43.562;19.540;2023-10-08T14:37:08;30.83;;;21.60;;
70150;SDS011;57517;43.562;19.540;2023-10-08T14:39:53;25.40;;;19.50;;
70150;SDS011;57517;43.562;19.540;2023-10-08T14:42:38;45.80;;;29.42;;
70150;SDS011;57517;43.562;19.540;2023-10-08T14:45:31;59.53;;;35.60;;
70150;SDS011;57517;43.562;19.540;2023-10-08T14:48:06;27.90;;;20.23;;
70150;SDS011;57517;43.562;19.540;2023-10-08T14:50:36;20.02;;;14.15;;
70150;SDS011;57517;43.562;19.540;2023-10-08T14:53:04;21.65;;;12.88;;